Hyalite Weather Station

This weather station provides temperature, wind speed, gust or max wind speed, and wind direction at 9982ft near the summit of Flanders Mountain. This data can be used with temperature and precipitation data from the Shower Falls SNOTEL site. If the data has not been updated recently you can view it directly on datagarrison.com

Elevation
9982ft
Jump to table bottom
Date Time Temperature
deg F
RH, % Wind Speed Wind Gust Wind Direction
01/17/21 07:00 19.4 87 23 49 W - 258
01/17/21 06:00 18.7 70 20 35 W - 251
01/17/21 05:00 20.0 60 23 40 W - 253
01/17/21 04:00 18.8 56 23 41 W - 257
01/17/21 03:00 18.9 53 22 42 W - 268
01/17/21 02:00 16.3 75 20 36 W - 261
01/17/21 01:00 14.5 92 17 29 W - 257
01/17/21 00:00 15.3 73 19 35 W - 270
01/16/21 23:00 17.8 53 22 39 W - 267
01/16/21 22:00 18.7 47 23 38 W - 267
01/16/21 21:00 18.3 46 20 34 W - 265
01/16/21 20:00 17.9 48 20 32 W - 256
01/16/21 19:00 17.0 52 21 33 W - 256
01/16/21 18:00 17.5 52 21 34 W - 260
01/16/21 17:00 16.8 55 19 30 W - 261
01/16/21 16:00 17.5 56 20 36 W - 270
01/16/21 15:00 17.1 61 20 37 W - 268
01/16/21 14:00 15.8 89 19 37 W - 274
01/16/21 13:00 13.1 92 20 39 W - 275
01/16/21 12:00 12.6 92 17 43 W - 271
01/16/21 11:00 13.3 92 15 25 W - 261
01/16/21 10:00 12.2 92 16 25 W - 263
01/16/21 09:00 12.3 92 14 23 W - 264
01/16/21 08:00 12.5 92 11 17 W - 264
01/16/21 07:00 13.0 92 10 17 W - 270
01/16/21 06:00 13.8 93 12 22 W - 268
01/16/21 05:00 14.5 93 11 23 W - 274
01/16/21 04:00 15.0 93 10 19 W - 277
01/16/21 03:00 14.8 93 13 27 W - 281
01/16/21 02:00 15.7 93 14 28 W - 271
01/16/21 01:00 16.9 94 14 26 W - 279
01/16/21 00:00 18.0 94 14 27 W - 278
01/15/21 23:00 19.4 94 16 29 W - 272
01/15/21 22:00 20.0 94 16 31 W - 265
01/15/21 21:00 20.8 95 18 33 W - 260
01/15/21 20:00 20.8 95 17 27 W - 256
01/15/21 19:00 20.1 94 10 26 W - 251
01/15/21 18:00 20.5 94 11 20 W - 256
01/15/21 17:00 21.2 91 16 32 W - 263
01/15/21 16:00 27.1 59 20 35 W - 270
01/15/21 15:00 27.6 62 14 30 W - 260
01/15/21 14:00 28.7 60 19 31 W - 256
01/15/21 13:00 27.6 51 20 35 W - 256
01/15/21 12:00 27.5 50 20 34 W - 260
01/15/21 11:00 27.0 49 21 33 W - 257
01/15/21 10:00 26.8 51 16 27 W - 263
01/15/21 09:00 27.4 47 17 31 W - 268
01/15/21 08:00 24.8 64 20 36 W - 271
01/15/21 07:00 24.1 73 20 35 W - 265
01/15/21 06:00 23.0 72 21 37 W - 267